createdAt,value
2023-04-21T00:01:29.868Z,8.60
2023-04-21T00:03:56.702Z,8.93
2023-04-21T00:06:23.522Z,8.43
2023-04-21T00:08:50.799Z,9.10
2023-04-21T00:11:17.738Z,9.07
2023-04-21T00:13:44.936Z,7.70
2023-04-21T00:16:12.061Z,8.87
2023-04-21T00:18:38.792Z,9.00
2023-04-21T00:21:06.136Z,9.97
2023-04-21T00:23:33.021Z,9.33
2023-04-21T00:26:02.535Z,9.60
2023-04-21T00:28:29.743Z,9.50
2023-04-21T00:30:56.753Z,9.13
2023-04-21T00:33:23.614Z,8.60
2023-04-21T00:35:50.240Z,9.43
2023-04-21T00:38:16.824Z,8.50
2023-04-21T00:40:43.427Z,8.90
2023-04-21T00:43:10.191Z,8.77
2023-04-21T00:45:36.791Z,8.80
2023-04-21T00:48:03.581Z,9.47
2023-04-21T00:50:30.544Z,9.03
2023-04-21T00:52:57.657Z,9.07
2023-04-21T00:55:25.033Z,9.07
2023-04-21T00:57:53.489Z,8.93
2023-04-21T01:00:20.445Z,9.60
2023-04-21T01:02:47.621Z,9.57
2023-04-21T01:05:16.362Z,9.77
2023-04-21T01:07:43.439Z,9.10
2023-04-21T01:10:10.339Z,10.00
2023-04-21T01:12:47.148Z,9.80
2023-04-21T01:15:16.372Z,9.93
2023-04-21T01:17:43.354Z,9.57
2023-04-21T01:20:13.269Z,9.70
2023-04-21T01:22:45.211Z,9.80
2023-04-21T01:25:12.134Z,9.93
2023-04-21T01:27:38.812Z,9.27
2023-04-21T01:30:07.303Z,9.73
2023-04-21T01:32:34.094Z,10.00
2023-04-21T01:35:00.869Z,9.73
2023-04-21T01:37:31.705Z,9.93
2023-04-21T01:40:00.931Z,10.27
2023-04-21T01:42:29.796Z,10.10
2023-04-21T01:44:57.295Z,9.57
2023-04-21T01:47:25.410Z,9.40
2023-04-21T01:49:52.471Z,8.77
2023-04-21T01:52:19.290Z,9.47
2023-04-21T01:54:45.970Z,10.83
2023-04-21T01:57:12.621Z,9.83
2023-04-21T01:59:39.295Z,9.57
2023-04-21T02:02:06.095Z,9.73
2023-04-21T02:04:33.045Z,9.47
2023-04-21T02:07:00.148Z,9.07
2023-04-21T02:09:26.807Z,9.77
2023-04-21T02:11:55.121Z,9.83
2023-04-21T02:14:21.733Z,9.13
2023-04-21T02:16:48.417Z,9.57
2023-04-21T02:19:15.167Z,10.03
2023-04-21T02:21:41.789Z,10.20
2023-04-21T02:24:08.469Z,9.60
2023-04-21T02:26:35.250Z,10.23
2023-04-21T02:29:02.642Z,9.30
2023-04-21T02:31:29.710Z,10.80
2023-04-21T02:33:56.420Z,10.37
2023-04-21T02:36:23.072Z,9.77
2023-04-21T02:38:49.686Z,9.53
2023-04-21T02:41:16.316Z,9.47
2023-04-21T02:43:42.942Z,9.00
2023-04-21T02:46:09.734Z,9.63
2023-04-21T02:48:36.927Z,8.97
2023-04-21T02:51:04.550Z,9.53
2023-04-21T02:53:31.322Z,9.83
2023-04-21T02:55:57.998Z,10.57
2023-04-21T02:58:24.740Z,10.43
2023-04-21T03:00:51.449Z,9.20
2023-04-21T03:03:18.331Z,10.43
2023-04-21T03:05:45.192Z,9.80
2023-04-21T03:08:11.870Z,9.93
2023-04-21T03:10:38.738Z,9.70
2023-04-21T03:13:05.408Z,9.70
2023-04-21T03:15:32.172Z,9.73
2023-04-21T03:17:58.855Z,10.53
2023-04-21T03:20:25.540Z,10.53
2023-04-21T03:22:54.169Z,10.50
2023-04-21T03:25:20.948Z,10.30
2023-04-21T03:27:47.585Z,10.13
2023-04-21T03:30:14.221Z,10.87
2023-04-21T03:32:41.049Z,10.20
2023-04-21T03:35:07.969Z,9.90
2023-04-21T03:37:34.646Z,10.87
2023-04-21T03:40:01.287Z,10.47
2023-04-21T03:42:30.002Z,10.20
2023-04-21T03:44:56.756Z,9.97
2023-04-21T03:47:23.408Z,9.93
2023-04-21T03:49:50.222Z,9.00
2023-04-21T03:52:16.897Z,10.00
2023-04-21T03:54:43.574Z,9.20
2023-04-21T03:57:13.412Z,9.60
2023-04-21T03:59:40.059Z,9.50
2023-04-21T04:02:06.733Z,8.37
2023-04-21T04:04:33.741Z,9.03
2023-04-21T04:07:00.535Z,9.77
2023-04-21T04:09:27.135Z,9.57
2023-04-21T04:11:53.793Z,11.30
2023-04-21T04:14:20.407Z,9.77
2023-04-21T04:16:47.026Z,9.63
2023-04-21T04:19:13.626Z,10.17
2023-04-21T04:21:40.408Z,9.73
2023-04-21T04:24:08.269Z,10.20
2023-04-21T04:26:35.511Z,9.50
2023-04-21T04:29:02.329Z,8.97
2023-04-21T04:31:32.424Z,10.10
2023-04-21T04:33:59.314Z,8.90
2023-04-21T04:36:27.648Z,9.57
2023-04-21T04:38:54.266Z,9.07
2023-04-21T04:41:20.996Z,9.77
2023-04-21T04:43:47.613Z,10.57
2023-04-21T04:46:14.315Z,10.50
2023-04-21T04:48:41.179Z,10.10
2023-04-21T04:51:07.911Z,10.33
2023-04-21T04:53:34.531Z,8.90
2023-04-21T04:56:02.315Z,9.80
2023-04-21T04:58:28.982Z,9.83
2023-04-21T05:00:55.668Z,9.67
2023-04-21T05:03:22.363Z,10.13
2023-04-21T05:05:49.379Z,10.10
2023-04-21T05:08:17.965Z,10.33
2023-04-21T05:10:44.872Z,9.73
2023-04-21T05:13:11.528Z,10.00
2023-04-21T05:15:38.125Z,9.73
2023-04-21T05:18:05.052Z,9.80
2023-04-21T05:20:31.820Z,10.33
2023-04-21T05:22:58.445Z,10.80
2023-04-21T05:25:25.318Z,9.27
2023-04-21T05:27:52.016Z,8.97
2023-04-21T05:30:18.701Z,9.33
2023-04-21T05:32:45.385Z,9.63
2023-04-21T05:35:12.054Z,9.13
2023-04-21T05:37:38.753Z,9.83
2023-04-21T05:40:06.031Z,9.47
2023-04-21T05:42:32.797Z,9.73
2023-04-21T05:44:59.473Z,9.00
2023-04-21T05:47:26.164Z,9.50
2023-04-21T05:49:53.787Z,9.67
2023-04-21T05:52:23.674Z,9.17
2023-04-21T05:54:50.447Z,11.23
2023-04-21T05:57:17.632Z,10.37
2023-04-21T05:59:44.378Z,10.20
2023-04-21T06:02:12.236Z,9.67
2023-04-21T06:04:39.152Z,9.03
2023-04-21T06:07:10.286Z,9.20
2023-04-21T06:09:36.936Z,9.17
2023-04-21T06:12:03.791Z,9.23
2023-04-21T06:14:30.514Z,9.30
2023-04-21T06:16:59.714Z,9.20
2023-04-21T06:19:26.331Z,8.23
2023-04-21T06:21:52.997Z,8.60
2023-04-21T06:24:24.969Z,7.47
2023-04-21T06:26:58.253Z,7.33
2023-04-21T06:29:24.897Z,8.13
2023-04-21T06:31:51.639Z,7.83
2023-04-21T06:34:20.085Z,7.77
2023-04-21T06:36:46.921Z,8.97
2023-04-21T06:39:13.587Z,10.50
2023-04-21T06:41:40.707Z,9.73
2023-04-21T06:44:07.294Z,9.63
2023-04-21T06:46:34.063Z,8.43
2023-04-21T06:49:00.866Z,10.53
2023-04-21T06:51:27.487Z,12.43
2023-04-21T06:53:54.097Z,12.30
2023-04-21T06:56:21.124Z,11.87
2023-04-21T06:58:47.804Z,11.33
2023-04-21T07:01:14.432Z,10.10
2023-04-21T07:03:41.408Z,9.37
2023-04-21T07:06:08.227Z,10.40
2023-04-21T07:08:34.877Z,9.80
2023-04-21T07:11:01.591Z,10.53
2023-04-21T07:13:28.217Z,9.93
2023-04-21T07:15:55.006Z,9.90
2023-04-21T07:18:21.665Z,10.33
2023-04-21T07:20:48.274Z,10.30
2023-04-21T07:23:15.046Z,8.93
2023-04-21T07:25:41.732Z,8.93
2023-04-21T07:28:08.694Z,7.43
2023-04-21T07:30:35.364Z,8.07
2023-04-21T07:33:02.101Z,8.53
2023-04-21T07:35:28.797Z,8.07
2023-04-21T07:37:55.490Z,8.50
2023-04-21T07:40:22.214Z,8.00
2023-04-21T07:42:48.862Z,8.50
2023-04-21T07:45:15.592Z,9.37
2023-04-21T07:47:42.284Z,8.50
2023-04-21T07:50:09.727Z,8.63
2023-04-21T07:52:36.357Z,8.70
2023-04-21T07:55:03.072Z,8.27
2023-04-21T07:57:31.758Z,7.90
2023-04-21T07:59:58.350Z,7.50
2023-04-21T08:02:25.160Z,7.40
2023-04-21T08:04:52.171Z,7.57
2023-04-21T08:07:18.897Z,7.23
2023-04-21T08:09:45.627Z,7.30
2023-04-21T08:12:12.334Z,6.70
2023-04-21T08:20:09.882Z,7.03
2023-04-21T08:22:36.653Z,6.23
2023-04-21T08:25:06.750Z,6.43
2023-04-21T08:27:39.914Z,6.23
2023-04-21T08:30:07.630Z,6.50
2023-04-21T08:32:34.379Z,6.77
2023-04-21T08:35:01.012Z,6.57
2023-04-21T08:37:27.674Z,6.83
2023-04-21T08:39:54.452Z,6.70
2023-04-21T08:42:21.136Z,6.60
2023-04-21T08:44:47.956Z,6.27
2023-04-21T08:47:15.678Z,6.30
2023-04-21T08:49:45.043Z,6.17
2023-04-21T08:52:13.830Z,6.17
2023-04-21T08:54:40.916Z,5.77
2023-04-21T08:57:15.369Z,6.50
2023-04-21T08:59:43.159Z,5.93
2023-04-21T09:02:18.680Z,6.33
2023-04-21T09:04:47.616Z,5.77
2023-04-21T09:07:35.983Z,5.67
2023-04-21T09:10:04.512Z,5.50
2023-04-21T09:12:31.356Z,5.57
2023-04-21T09:14:58.626Z,5.90
2023-04-21T09:17:33.835Z,5.60
2023-04-21T09:20:14.902Z,4.90
2023-04-21T09:22:41.804Z,5.00
2023-04-21T09:25:08.626Z,5.13
2023-04-21T09:27:41.910Z,5.60
2023-04-21T09:30:09.052Z,4.53
2023-04-21T09:32:42.117Z,5.00
2023-04-21T09:35:12.068Z,5.40
2023-04-21T09:37:39.884Z,5.17
2023-04-21T09:40:07.085Z,5.57
2023-04-21T09:42:38.683Z,4.87
2023-04-21T09:45:28.398Z,5.30
2023-04-21T09:47:59.058Z,4.80
2023-04-21T09:51:01.774Z,4.93
2023-04-21T09:53:16.813Z,4.50
2023-04-21T09:55:48.121Z,4.90
2023-04-21T09:58:20.056Z,4.47
2023-04-21T10:00:47.545Z,4.33
2023-04-21T10:03:18.081Z,4.10
2023-04-21T10:05:45.225Z,3.80
2023-04-21T10:08:12.530Z,4.57
2023-04-21T10:10:39.553Z,4.23
2023-04-21T10:13:06.876Z,4.07
2023-04-21T10:15:41.766Z,4.10
2023-04-21T10:18:23.294Z,3.80
2023-04-21T10:20:57.189Z,4.07
2023-04-21T10:23:53.822Z,4.00
2023-04-21T10:26:22.113Z,3.97
2023-04-21T10:28:54.945Z,3.97
2023-04-21T10:31:21.675Z,4.33
2023-04-21T10:34:08.358Z,3.67
2023-04-21T10:36:42.904Z,4.30
2023-04-21T10:39:12.909Z,3.93
2023-04-21T10:41:39.553Z,4.17
2023-04-21T10:44:16.315Z,3.97
2023-04-21T10:46:48.273Z,4.17
2023-04-21T10:49:24.909Z,3.90
2023-04-21T10:51:57.793Z,4.43
2023-04-21T10:54:27.998Z,3.77
2023-04-21T10:56:56.478Z,4.83
2023-04-21T10:59:24.814Z,4.83
2023-04-21T11:01:52.140Z,3.87
2023-04-21T11:04:21.419Z,4.10
2023-04-21T11:07:08.336Z,4.53
2023-04-21T11:09:35.866Z,5.20
2023-04-21T11:12:04.710Z,4.50
2023-04-21T11:14:31.492Z,4.47
2023-04-21T11:17:00.666Z,4.07
2023-04-21T11:19:27.508Z,4.00
2023-04-21T11:21:54.654Z,4.00
2023-04-21T11:24:22.137Z,3.80
2023-04-21T11:26:48.979Z,4.47
2023-04-21T11:29:16.648Z,3.87
2023-04-21T11:31:45.446Z,4.40
2023-04-21T11:34:12.240Z,4.40
2023-04-21T11:36:41.500Z,4.60
2023-04-21T11:39:13.755Z,3.97
2023-04-21T11:41:42.732Z,4.23
2023-04-21T11:44:10.651Z,3.90
2023-04-21T11:46:37.807Z,3.40
2023-04-21T11:49:11.322Z,3.13
2023-04-21T11:51:53.817Z,3.60
2023-04-21T11:54:21.968Z,3.30
2023-04-21T11:56:48.848Z,4.43
2023-04-21T11:59:19.398Z,3.03
2023-04-21T12:01:47.269Z,3.43
2023-04-21T12:04:21.682Z,3.00
2023-04-21T12:07:03.161Z,2.73
2023-04-21T12:09:30.294Z,2.70
2023-04-21T12:11:58.825Z,2.90
2023-04-21T12:14:29.214Z,2.90
2023-04-21T12:16:57.578Z,2.53
2023-04-21T12:19:41.516Z,2.53
2023-04-21T12:22:13.766Z,2.50
2023-04-21T12:24:41.639Z,2.87
2023-04-21T12:27:08.712Z,2.77
2023-04-21T12:29:37.352Z,2.67
2023-04-21T12:32:08.708Z,2.50
2023-04-21T12:34:36.097Z,2.30
2023-04-21T12:37:03.188Z,2.47
2023-04-21T12:39:30.488Z,2.50
2023-04-21T12:41:57.714Z,2.37
2023-04-21T12:44:24.635Z,2.97
2023-04-21T12:46:52.013Z,3.03
2023-04-21T12:49:19.254Z,2.20
2023-04-21T12:51:45.898Z,2.42
2023-04-21T12:54:12.713Z,2.50
2023-04-21T12:56:40.195Z,2.50
2023-04-21T12:59:07.200Z,2.73
2023-04-21T13:01:34.001Z,3.00
2023-04-21T13:04:01.045Z,3.00
2023-04-21T13:06:28.499Z,2.40
2023-04-21T13:08:55.880Z,2.10
2023-04-21T13:11:22.574Z,2.83
2023-04-21T13:13:49.211Z,2.60
2023-04-21T13:16:16.242Z,2.20
2023-04-21T13:18:44.454Z,2.37
2023-04-21T13:21:11.074Z,2.30
2023-04-21T13:23:37.770Z,2.93
2023-04-21T13:26:04.949Z,2.53
2023-04-21T13:28:31.732Z,2.50
2023-04-21T13:30:58.873Z,2.63
2023-04-21T13:33:25.880Z,2.60
2023-04-21T13:35:52.886Z,2.07
2023-04-21T13:38:20.689Z,2.50
2023-04-21T13:40:48.879Z,2.57
2023-04-21T13:43:15.663Z,2.77
2023-04-21T13:45:42.393Z,2.20
2023-04-21T13:48:09.073Z,2.53
2023-04-21T13:50:35.812Z,2.53
2023-04-21T13:53:02.461Z,2.40
2023-04-21T13:55:29.147Z,2.60
2023-04-21T13:57:55.868Z,2.10
2023-04-21T14:00:22.719Z,2.30
2023-04-21T14:02:49.606Z,2.77
2023-04-21T14:05:17.020Z,2.20
2023-04-21T14:07:43.924Z,2.57
2023-04-21T14:10:12.390Z,2.60
2023-04-21T14:12:39.186Z,2.37
2023-04-21T14:15:06.827Z,2.13
2023-04-21T14:17:34.273Z,2.00
2023-04-21T14:20:01.038Z,1.90
2023-04-21T14:22:28.198Z,2.60
2023-04-21T14:24:54.933Z,2.50
2023-04-21T14:27:21.743Z,2.20
2023-04-21T14:29:48.452Z,2.10
2023-04-21T14:32:15.416Z,2.07
2023-04-21T14:34:43.311Z,2.30
2023-04-21T14:37:10.401Z,2.00
2023-04-21T14:39:37.066Z,2.00
2023-04-21T14:42:03.883Z,1.53
2023-04-21T14:44:30.588Z,1.70
2023-04-21T14:47:09.052Z,1.23
2023-04-21T14:49:40.554Z,1.67
2023-04-21T14:52:07.426Z,1.50
2023-04-21T14:54:34.309Z,1.52
2023-04-21T14:57:17.670Z,1.77
2023-04-21T14:59:50.953Z,1.60
2023-04-21T15:02:17.957Z,1.47
2023-04-21T15:04:45.467Z,1.60
2023-04-21T15:07:12.307Z,1.40
2023-04-21T15:09:45.597Z,1.70
2023-04-21T15:12:13.346Z,1.60
2023-04-21T15:14:40.664Z,1.70
2023-04-21T15:17:07.371Z,1.50
2023-04-21T15:19:34.278Z,1.70
2023-04-21T15:22:01.099Z,2.00
2023-04-21T15:24:27.747Z,1.90
2023-04-21T15:26:54.463Z,1.70
2023-04-21T15:29:21.080Z,1.70
2023-04-21T15:31:47.881Z,1.70
2023-04-21T15:34:14.522Z,1.70
2023-04-21T15:36:41.280Z,1.80
2023-04-21T15:39:08.342Z,1.60
2023-04-21T15:41:35.367Z,2.00
2023-04-21T15:44:02.134Z,1.60
2023-04-21T15:46:28.840Z,1.50
2023-04-21T15:48:55.507Z,1.40
2023-04-21T15:51:22.361Z,1.50
2023-04-21T15:53:49.645Z,1.70
2023-04-21T15:56:17.011Z,1.43
2023-04-21T15:58:43.778Z,1.57
2023-04-21T16:01:10.767Z,1.00
2023-04-21T16:03:37.885Z,1.30
2023-04-21T16:06:04.812Z,1.57
2023-04-21T16:08:33.157Z,1.23
2023-04-21T16:11:01.007Z,1.23
2023-04-21T16:13:27.913Z,1.30
2023-04-21T16:15:54.593Z,1.77
2023-04-21T16:18:21.290Z,1.50
2023-04-21T16:20:48.050Z,1.50
2023-04-21T16:23:15.107Z,1.70
2023-04-21T16:25:42.191Z,1.53
2023-04-21T16:28:09.733Z,1.70
2023-04-21T16:30:38.367Z,1.47
2023-04-21T16:33:05.040Z,1.77
2023-04-21T16:35:31.839Z,1.40
2023-04-21T16:37:58.694Z,1.50
2023-04-21T16:40:25.555Z,1.67
2023-04-21T16:42:52.580Z,1.60
2023-04-21T16:45:19.601Z,1.40
2023-04-21T16:47:46.460Z,1.30
2023-04-21T16:50:13.561Z,1.60
2023-04-21T16:52:40.446Z,1.40
2023-04-21T16:55:07.418Z,1.33
2023-04-21T16:57:34.808Z,1.30
2023-04-21T17:00:06.843Z,1.40
2023-04-21T17:02:34.180Z,1.50
2023-04-21T17:05:01.015Z,1.53
2023-04-21T17:07:28.121Z,1.37
2023-04-21T17:09:54.864Z,1.20
2023-04-21T17:12:21.778Z,1.70
2023-04-21T17:14:48.710Z,1.50
2023-04-21T17:17:16.030Z,1.50
2023-04-21T17:19:42.830Z,1.77
2023-04-21T17:22:09.537Z,2.20
2023-04-21T17:24:51.776Z,2.13
2023-04-21T17:27:19.856Z,2.80
2023-04-21T17:29:46.778Z,2.20
2023-04-21T17:32:13.814Z,2.93
2023-04-21T17:34:40.727Z,2.30
2023-04-21T17:37:07.441Z,1.70
2023-04-21T17:39:34.076Z,1.80
2023-04-21T17:42:02.351Z,1.87
2023-04-21T17:44:29.045Z,1.70
2023-04-21T17:46:55.809Z,1.53
2023-04-21T17:49:24.656Z,1.73
2023-04-21T17:51:51.720Z,1.90
2023-04-21T17:54:18.435Z,1.50
2023-04-21T17:56:47.819Z,1.70
2023-04-21T17:59:14.436Z,1.70
2023-04-21T18:01:41.382Z,1.80
2023-04-21T18:04:08.586Z,1.70
2023-04-21T18:06:36.268Z,1.90
2023-04-21T18:09:04.791Z,1.80
2023-04-21T18:11:31.658Z,1.63
2023-04-21T18:13:58.748Z,1.47
2023-04-21T18:16:25.845Z,1.43
2023-04-21T18:18:52.768Z,1.50
2023-04-21T18:21:19.557Z,1.60
2023-04-21T18:23:46.390Z,1.70
2023-04-21T18:26:12.994Z,1.70
2023-04-21T18:28:39.619Z,1.93
2023-04-21T18:31:06.391Z,1.80
2023-04-21T18:33:33.153Z,1.73
2023-04-21T18:35:59.797Z,1.50
2023-04-21T18:38:26.422Z,1.53
2023-04-21T18:40:53.079Z,1.57
2023-04-21T18:43:19.785Z,2.00
2023-04-21T18:45:46.577Z,1.70
2023-04-21T18:48:13.308Z,1.60
2023-04-21T18:50:40.845Z,1.80
2023-04-21T18:53:08.248Z,1.93
2023-04-21T18:55:35.822Z,1.53
2023-04-21T18:58:02.711Z,1.60
2023-04-21T19:00:31.594Z,1.77
2023-04-21T19:03:00.997Z,1.80
2023-04-21T19:05:29.771Z,2.00
2023-04-21T19:07:57.898Z,1.60
2023-04-21T19:10:24.589Z,1.77
2023-04-21T19:12:51.306Z,2.07
2023-04-21T19:15:18.172Z,2.00
2023-04-21T19:17:44.989Z,2.20
2023-04-21T19:20:12.178Z,2.30
2023-04-21T19:22:38.917Z,2.40
2023-04-21T19:25:06.961Z,2.60
2023-04-21T19:27:35.924Z,2.50
2023-04-21T19:30:02.831Z,2.50
2023-04-21T19:32:29.647Z,2.47
2023-04-21T19:34:56.531Z,2.50
2023-04-21T19:37:23.260Z,2.43
2023-04-21T19:39:49.857Z,2.43
2023-04-21T19:42:16.490Z,2.50
2023-04-21T19:44:43.681Z,3.20
2023-04-21T19:47:10.566Z,2.97
2023-04-21T19:49:37.303Z,2.80
2023-04-21T19:52:04.065Z,3.50
2023-04-21T19:54:30.963Z,3.23
2023-04-21T19:56:59.933Z,3.53
2023-04-21T19:59:26.691Z,4.10
2023-04-21T20:01:53.474Z,3.63
2023-04-21T20:04:20.296Z,3.27
2023-04-21T20:06:47.044Z,3.13
2023-04-21T20:09:13.674Z,2.87
2023-04-21T20:11:40.418Z,3.50
2023-04-21T20:14:07.081Z,3.63
2023-04-21T20:16:34.156Z,4.03
2023-04-21T20:19:01.033Z,3.90
2023-04-21T20:21:27.665Z,5.13
2023-04-21T20:23:54.544Z,5.27
2023-04-21T20:26:21.336Z,4.73
2023-04-21T20:28:48.203Z,4.63
2023-04-21T20:31:15.003Z,4.13
2023-04-21T20:33:41.689Z,4.50
2023-04-21T20:36:08.344Z,3.77
2023-04-21T20:38:35.328Z,3.77
2023-04-21T20:41:03.268Z,3.87
2023-04-21T20:43:32.931Z,3.30
2023-04-21T20:46:01.263Z,3.43
2023-04-21T20:48:28.100Z,3.10
2023-04-21T20:50:55.641Z,2.93
2023-04-21T20:53:22.788Z,3.50
2023-04-21T20:55:49.455Z,3.33
2023-04-21T20:58:16.145Z,3.33
2023-04-21T21:00:42.836Z,3.70
2023-04-21T21:03:10.006Z,3.00
2023-04-21T21:05:37.783Z,3.20
2023-04-21T21:08:05.310Z,3.37
2023-04-21T21:10:31.982Z,3.30
2023-04-21T21:12:59.478Z,3.77
2023-04-21T21:15:30.595Z,3.27
2023-04-21T21:17:57.498Z,3.47
2023-04-21T21:20:24.344Z,3.40
2023-04-21T21:22:51.126Z,3.87
2023-04-21T21:25:18.046Z,3.87
2023-04-21T21:27:45.147Z,3.40
2023-04-21T21:30:12.078Z,3.37
2023-04-21T21:32:38.808Z,3.20
2023-04-21T21:35:07.421Z,3.40
2023-04-21T21:37:34.591Z,3.30
2023-04-21T21:40:01.331Z,3.50
2023-04-21T21:42:27.969Z,3.30
2023-04-21T21:44:54.669Z,3.23
2023-04-21T21:47:21.697Z,3.13
2023-04-21T21:49:49.075Z,3.60
2023-04-21T21:52:16.347Z,3.70
2023-04-21T21:54:42.981Z,3.43
2023-04-21T21:57:09.713Z,2.97
2023-04-21T21:59:36.835Z,3.27
2023-04-21T22:02:03.906Z,3.53
2023-04-21T22:04:31.113Z,3.47
2023-04-21T22:06:57.869Z,3.60
2023-04-21T22:09:24.552Z,3.50
2023-04-21T22:11:51.475Z,4.00
2023-04-21T22:14:23.539Z,4.17
2023-04-21T22:16:52.906Z,3.47
2023-04-21T22:19:20.355Z,3.63
2023-04-21T22:21:47.196Z,4.07
2023-04-21T22:24:14.282Z,3.33
2023-04-21T22:26:41.201Z,3.50
2023-04-21T22:29:07.861Z,3.83
2023-04-21T22:31:34.712Z,3.80
2023-04-21T22:34:01.481Z,3.37
2023-04-21T22:36:28.194Z,3.77
2023-04-21T22:38:54.871Z,3.40
2023-04-21T22:41:21.573Z,3.33
2023-04-21T22:43:48.290Z,3.77
2023-04-21T22:46:15.008Z,3.63
2023-04-21T22:48:41.837Z,3.43
2023-04-21T22:51:08.469Z,3.40
2023-04-21T22:53:35.347Z,3.53
2023-04-21T22:56:02.194Z,3.70
2023-04-21T22:58:28.854Z,3.10
2023-04-21T23:00:55.548Z,3.60
2023-04-21T23:03:23.454Z,3.87
2023-04-21T23:05:50.479Z,3.33
2023-04-21T23:08:17.107Z,3.83
2023-04-21T23:10:43.741Z,3.67
2023-04-21T23:13:10.618Z,3.50
2023-04-21T23:15:37.212Z,3.10
2023-04-21T23:18:04.083Z,3.63
2023-04-21T23:20:31.487Z,3.57
2023-04-21T23:22:58.319Z,3.70
2023-04-21T23:25:25.363Z,3.97
2023-04-21T23:27:51.971Z,3.60
2023-04-21T23:30:18.726Z,3.93
2023-04-21T23:32:45.704Z,3.87
2023-04-21T23:35:12.490Z,3.70
2023-04-21T23:37:39.198Z,3.90
2023-04-21T23:40:10.854Z,4.07
2023-04-21T23:42:38.662Z,4.30
2023-04-21T23:45:06.375Z,3.70
2023-04-21T23:47:33.445Z,4.17
2023-04-21T23:50:00.328Z,3.77
2023-04-21T23:52:26.996Z,3.40
2023-04-21T23:54:53.649Z,4.07
2023-04-21T23:57:20.366Z,4.07
2023-04-21T23:59:47.038Z,3.90
